sensor_id;sensor_type;location;lat;lon;timestamp;pressure;altitude;pressure_sealevel;temperature;humidity
48563;BME280;34981;49.104;11.396;2023-09-19T00:01:43;101152.88;;;15.60;100.00
48563;BME280;34981;49.104;11.396;2023-09-19T00:04:13;101164.03;;;15.65;100.00
48563;BME280;34981;49.104;11.396;2023-09-19T00:06:41;101160.34;;;15.57;100.00
48563;BME280;34981;49.104;11.396;2023-09-19T00:09:09;101175.78;;;15.57;100.00
48563;BME280;34981;49.104;11.396;2023-09-19T00:11:37;101180.00;;;15.60;100.00
48563;BME280;34981;49.104;11.396;2023-09-19T00:14:05;101188.84;;;15.53;100.00
48563;BME280;34981;49.104;11.396;2023-09-19T00:16:34;101189.53;;;15.47;100.00
48563;BME280;34981;49.104;11.396;2023-09-19T00:19:03;101209.16;;;15.49;100.00
48563;BME280;34981;49.104;11.396;2023-09-19T00:21:31;101212.56;;;15.43;100.00
48563;BME280;34981;49.104;11.396;2023-09-19T00:23:58;101236.31;;;15.41;100.00
48563;BME280;34981;49.104;11.396;2023-09-19T00:26:25;101259.69;;;15.42;100.00
48563;BME280;34981;49.104;11.396;2023-09-19T00:28:53;101273.47;;;15.41;100.00
48563;BME280;34981;49.104;11.396;2023-09-19T00:31:20;101291.22;;;15.35;100.00
48563;BME280;34981;49.104;11.396;2023-09-19T00:33:53;101288.88;;;15.32;100.00
48563;BME280;34981;49.104;11.396;2023-09-19T00:36:20;101321.59;;;15.31;100.00
48563;BME280;34981;49.104;11.396;2023-09-19T00:38:47;101347.53;;;15.33;100.00
48563;BME280;34981;49.104;11.396;2023-09-19T00:41:14;101370.91;;;15.34;100.00
48563;BME280;34981;49.104;11.396;2023-09-19T00:43:41;101390.25;;;15.39;100.00
48563;BME280;34981;49.104;11.396;2023-09-19T00:46:09;101421.81;;;15.48;100.00
48563;BME280;34981;49.104;11.396;2023-09-19T00:48:40;101428.41;;;15.46;100.00
48563;BME280;34981;49.104;11.396;2023-09-19T00:51:08;101430.16;;;15.55;100.00
48563;BME280;34981;49.104;11.396;2023-09-19T00:53:35;101447.72;;;15.51;100.00
48563;BME280;34981;49.104;11.396;2023-09-19T00:56:03;101435.00;;;15.43;100.00
48563;BME280;34981;49.104;11.396;2023-09-19T00:58:34;101438.41;;;15.45;100.00
48563;BME280;34981;49.104;11.396;2023-09-19T01:01:02;101443.81;;;15.45;100.00
48563;BME280;34981;49.104;11.396;2023-09-19T01:03:36;101422.09;;;15.37;100.00
48563;BME280;34981;49.104;11.396;2023-09-19T01:06:03;101478.78;;;15.56;100.00
48563;BME280;34981;49.104;11.396;2023-09-19T01:08:30;101479.00;;;15.63;100.00
48563;BME280;34981;49.104;11.396;2023-09-19T01:18:53;101411.66;;;15.67;100.00
48563;BME280;34981;49.104;11.396;2023-09-19T01:21:26;101356.03;;;15.63;100.00
48563;BME280;34981;49.104;11.396;2023-09-19T01:29:01;101328.22;;;15.61;100.00
48563;BME280;34981;49.104;11.396;2023-09-19T01:31:33;101251.09;;;15.55;100.00
48563;BME280;34981;49.104;11.396;2023-09-19T01:34:03;101254.25;;;15.50;100.00
48563;BME280;34981;49.104;11.396;2023-09-19T01:36:35;101206.66;;;15.40;100.00
48563;BME280;34981;49.104;11.396;2023-09-19T01:39:07;101202.09;;;15.40;100.00
48563;BME280;34981;49.104;11.396;2023-09-19T01:44:05;101176.66;;;15.41;100.00
48563;BME280;34981;49.104;11.396;2023-09-19T01:46:34;101142.59;;;15.39;100.00
48563;BME280;34981;49.104;11.396;2023-09-19T01:54:39;101034.94;;;15.39;100.00
48563;BME280;34981;49.104;11.396;2023-09-19T02:00:06;100983.53;;;15.46;100.00
48563;BME280;34981;49.104;11.396;2023-09-19T02:02:42;101004.22;;;15.47;100.00
48563;BME280;34981;49.104;11.396;2023-09-19T02:05:11;100995.56;;;15.43;100.00
48563;BME280;34981;49.104;11.396;2023-09-19T02:07:39;100975.56;;;15.44;100.00
48563;BME280;34981;49.104;11.396;2023-09-19T02:10:07;100958.75;;;15.49;100.00
48563;BME280;34981;49.104;11.396;2023-09-19T02:12:37;100928.56;;;15.52;100.00
48563;BME280;34981;49.104;11.396;2023-09-19T02:15:05;100901.50;;;15.44;100.00
48563;BME280;34981;49.104;11.396;2023-09-19T02:17:34;100878.31;;;15.41;100.00
48563;BME280;34981;49.104;11.396;2023-09-19T02:20:02;100885.03;;;15.53;100.00
48563;BME280;34981;49.104;11.396;2023-09-19T02:22:30;100847.06;;;15.45;100.00
48563;BME280;34981;49.104;11.396;2023-09-19T02:24:58;100828.53;;;15.49;100.00
48563;BME280;34981;49.104;11.396;2023-09-19T02:27:27;100814.31;;;15.55;100.00
48563;BME280;34981;49.104;11.396;2023-09-19T02:29:54;100772.16;;;15.44;100.00
48563;BME280;34981;49.104;11.396;2023-09-19T02:32:23;100756.38;;;15.48;100.00
48563;BME280;34981;49.104;11.396;2023-09-19T02:34:50;100710.22;;;15.33;100.00
48563;BME280;34981;49.104;11.396;2023-09-19T02:37:18;100691.53;;;15.38;100.00
48563;BME280;34981;49.104;11.396;2023-09-19T02:39:46;100672.91;;;15.35;100.00
48563;BME280;34981;49.104;11.396;2023-09-19T02:42:13;100663.38;;;15.39;100.00
48563;BME280;34981;49.104;11.396;2023-09-19T02:44:40;100622.41;;;15.34;100.00
48563;BME280;34981;49.104;11.396;2023-09-19T02:47:08;100605.78;;;15.37;100.00
48563;BME280;34981;49.104;11.396;2023-09-19T02:49:35;100584.06;;;15.37;100.00
48563;BME280;34981;49.104;11.396;2023-09-19T02:52:03;100555.28;;;15.36;100.00
48563;BME280;34981;49.104;11.396;2023-09-19T02:57:24;100456.72;;;15.29;100.00
48563;BME280;34981;49.104;11.396;2023-09-19T02:59:51;100479.44;;;15.28;100.00
48563;BME280;34981;49.104;11.396;2023-09-19T03:02:19;100461.25;;;15.22;100.00
48563;BME280;34981;49.104;11.396;2023-09-19T03:04:46;100449.19;;;15.25;100.00
48563;BME280;34981;49.104;11.396;2023-09-19T03:07:14;100437.09;;;15.27;100.00
48563;BME280;34981;49.104;11.396;2023-09-19T03:09:41;100412.69;;;15.27;100.00
48563;BME280;34981;49.104;11.396;2023-09-19T03:12:09;100377.59;;;15.19;100.00
48563;BME280;34981;49.104;11.396;2023-09-19T03:14:37;100365.69;;;15.20;100.00
48563;BME280;34981;49.104;11.396;2023-09-19T03:17:05;100354.09;;;15.26;100.00
48563;BME280;34981;49.104;11.396;2023-09-19T03:19:32;100328.66;;;15.27;100.00
48563;BME280;34981;49.104;11.396;2023-09-19T03:22:00;100303.34;;;15.20;100.00
48563;BME280;34981;49.104;11.396;2023-09-19T03:24:27;100282.25;;;15.15;100.00
48563;BME280;34981;49.104;11.396;2023-09-19T03:26:57;100280.81;;;15.19;100.00
48563;BME280;34981;49.104;11.396;2023-09-19T03:29:24;100258.56;;;15.24;100.00
48563;BME280;34981;49.104;11.396;2023-09-19T03:31:52;100242.09;;;15.26;100.00
48563;BME280;34981;49.104;11.396;2023-09-19T03:34:21;100212.84;;;15.21;100.00
48563;BME280;34981;49.104;11.396;2023-09-19T03:36:48;100190.94;;;15.16;100.00
48563;BME280;34981;49.104;11.396;2023-09-19T03:39:16;100164.63;;;15.10;100.00
48563;BME280;34981;49.104;11.396;2023-09-19T03:41:43;100151.25;;;15.08;100.00
48563;BME280;34981;49.104;11.396;2023-09-19T03:44:10;100134.78;;;15.10;100.00
48563;BME280;34981;49.104;11.396;2023-09-19T03:46:37;100132.31;;;15.15;100.00
48563;BME280;34981;49.104;11.396;2023-09-19T03:49:05;100113.81;;;15.18;100.00
48563;BME280;34981;49.104;11.396;2023-09-19T03:51:33;100080.97;;;15.07;100.00
48563;BME280;34981;49.104;11.396;2023-09-19T03:54:01;100064.13;;;15.11;100.00
48563;BME280;34981;49.104;11.396;2023-09-19T03:56:29;100057.03;;;15.10;100.00
48563;BME280;34981;49.104;11.396;2023-09-19T03:58:58;100050.84;;;15.23;100.00
48563;BME280;34981;49.104;11.396;2023-09-19T04:01:25;100025.81;;;15.21;100.00
48563;BME280;34981;49.104;11.396;2023-09-19T04:03:55;100007.47;;;15.23;100.00
48563;BME280;34981;49.104;11.396;2023-09-19T04:06:23;99982.41;;;15.14;100.00
48563;BME280;34981;49.104;11.396;2023-09-19T04:08:50;99956.94;;;15.09;100.00
48563;BME280;34981;49.104;11.396;2023-09-19T04:11:17;99942.78;;;15.13;100.00
48563;BME280;34981;49.104;11.396;2023-09-19T04:13:45;99917.75;;;15.05;100.00
48563;BME280;34981;49.104;11.396;2023-09-19T04:16:13;99927.78;;;15.11;100.00
48563;BME280;34981;49.104;11.396;2023-09-19T04:18:40;99892.28;;;14.99;100.00
48563;BME280;34981;49.104;11.396;2023-09-19T04:21:08;99888.38;;;15.08;100.00
48563;BME280;34981;49.104;11.396;2023-09-19T04:23:36;99889.84;;;15.11;100.00
48563;BME280;34981;49.104;11.396;2023-09-19T04:26:04;99869.78;;;15.05;100.00
48563;BME280;34981;49.104;11.396;2023-09-19T04:28:31;99873.59;;;15.11;100.00
48563;BME280;34981;49.104;11.396;2023-09-19T04:31:02;99843.53;;;15.06;100.00
48563;BME280;34981;49.104;11.396;2023-09-19T04:33:29;99842.69;;;15.05;100.00
48563;BME280;34981;49.104;11.396;2023-09-19T04:35:56;99831.03;;;15.05;100.00
48563;BME280;34981;49.104;11.396;2023-09-19T04:38:28;99808.09;;;15.01;100.00
48563;BME280;34981;49.104;11.396;2023-09-19T04:40:58;99806.66;;;15.05;100.00
48563;BME280;34981;49.104;11.396;2023-09-19T04:43:26;99793.50;;;15.02;100.00
48563;BME280;34981;49.104;11.396;2023-09-19T04:45:53;99792.47;;;15.03;100.00
48563;BME280;34981;49.104;11.396;2023-09-19T04:48:22;99781.84;;;15.08;100.00
48563;BME280;34981;49.104;11.396;2023-09-19T04:50:52;99749.28;;;14.95;100.00
48563;BME280;34981;49.104;11.396;2023-09-19T04:53:20;99756.19;;;14.97;100.00
48563;BME280;34981;49.104;11.396;2023-09-19T04:55:51;99748.47;;;14.94;100.00
48563;BME280;34981;49.104;11.396;2023-09-19T04:58:23;99722.00;;;14.90;100.00
48563;BME280;34981;49.104;11.396;2023-09-19T05:00:50;99703.81;;;14.84;100.00
48563;BME280;34981;49.104;11.396;2023-09-19T05:03:18;99696.75;;;14.83;100.00
48563;BME280;34981;49.104;11.396;2023-09-19T05:05:47;99696.34;;;14.86;100.00
48563;BME280;34981;49.104;11.396;2023-09-19T05:08:14;99688.63;;;14.83;100.00
48563;BME280;34981;49.104;11.396;2023-09-19T05:10:41;99681.13;;;14.85;100.00
48563;BME280;34981;49.104;11.396;2023-09-19T05:13:08;99667.56;;;14.85;100.00
48563;BME280;34981;49.104;11.396;2023-09-19T05:15:36;99664.47;;;14.88;100.00
48563;BME280;34981;49.104;11.396;2023-09-19T05:18:03;99651.75;;;14.88;100.00
48563;BME280;34981;49.104;11.396;2023-09-19T05:20:30;99618.81;;;14.71;100.00
48563;BME280;34981;49.104;11.396;2023-09-19T05:23:00;99620.69;;;14.77;100.00
48563;BME280;34981;49.104;11.396;2023-09-19T05:25:30;99600.28;;;14.75;100.00
48563;BME280;34981;49.104;11.396;2023-09-19T05:28:00;99591.31;;;14.74;100.00
48563;BME280;34981;49.104;11.396;2023-09-19T05:30:31;99570.06;;;14.71;100.00
48563;BME280;34981;49.104;11.396;2023-09-19T05:32:58;99583.41;;;14.79;100.00
48563;BME280;34981;49.104;11.396;2023-09-19T05:35:26;99567.16;;;14.73;100.00
48563;BME280;34981;49.104;11.396;2023-09-19T05:37:56;99567.97;;;14.73;100.00
48563;BME280;34981;49.104;11.396;2023-09-19T05:40:23;99569.44;;;14.83;100.00
48563;BME280;34981;49.104;11.396;2023-09-19T05:42:51;99570.06;;;14.91;100.00
48563;BME280;34981;49.104;11.396;2023-09-19T05:45:18;99556.75;;;14.90;100.00
48563;BME280;34981;49.104;11.396;2023-09-19T05:47:49;99541.28;;;14.84;100.00
48563;BME280;34981;49.104;11.396;2023-09-19T05:50:18;99542.56;;;14.88;100.00
48563;BME280;34981;49.104;11.396;2023-09-19T05:52:52;99538.19;;;14.87;100.00
48563;BME280;34981;49.104;11.396;2023-09-19T05:55:20;99530.06;;;14.87;100.00
48563;BME280;34981;49.104;11.396;2023-09-19T05:57:51;99529.41;;;14.85;100.00
48563;BME280;34981;49.104;11.396;2023-09-19T06:00:19;99532.13;;;14.85;100.00
48563;BME280;34981;49.104;11.396;2023-09-19T06:02:52;99529.22;;;14.86;100.00
48563;BME280;34981;49.104;11.396;2023-09-19T06:05:20;99538.38;;;14.92;100.00
48563;BME280;34981;49.104;11.396;2023-09-19T06:07:47;99541.72;;;14.94;100.00
48563;BME280;34981;49.104;11.396;2023-09-19T06:10:14;99545.06;;;14.96;100.00
48563;BME280;34981;49.104;11.396;2023-09-19T06:12:41;99539.63;;;14.96;100.00
48563;BME280;34981;49.104;11.396;2023-09-19T06:15:12;99561.50;;;15.07;100.00
48563;BME280;34981;49.104;11.396;2023-09-19T06:17:49;99564.00;;;15.09;100.00
48563;BME280;34981;49.104;11.396;2023-09-19T06:20:17;99574.63;;;15.17;100.00
48563;BME280;34981;49.104;11.396;2023-09-19T06:22:46;99616.72;;;15.39;100.00
48563;BME280;34981;49.104;11.396;2023-09-19T06:25:14;99653.41;;;15.68;100.00
48563;BME280;34981;49.104;11.396;2023-09-19T06:27:51;99666.88;;;15.94;100.00
48563;BME280;34981;49.104;11.396;2023-09-19T06:30:23;99714.16;;;16.31;100.00
48563;BME280;34981;49.104;11.396;2023-09-19T06:32:56;99738.72;;;16.56;100.00
48563;BME280;34981;49.104;11.396;2023-09-19T06:35:24;99693.25;;;16.39;100.00
48563;BME280;34981;49.104;11.396;2023-09-19T06:37:57;99682.38;;;16.39;100.00
48563;BME280;34981;49.104;11.396;2023-09-19T06:40:25;99659.84;;;16.31;100.00
48563;BME280;34981;49.104;11.396;2023-09-19T06:42:53;99635.88;;;16.28;100.00
48563;BME280;34981;49.104;11.396;2023-09-19T06:45:21;99610.03;;;16.13;100.00
48563;BME280;34981;49.104;11.396;2023-09-19T06:47:49;99596.03;;;16.16;100.00
48563;BME280;34981;49.104;11.396;2023-09-19T06:50:17;99577.03;;;16.16;100.00
48563;BME280;34981;49.104;11.396;2023-09-19T06:52:46;99575.88;;;16.30;100.00
48563;BME280;34981;49.104;11.396;2023-09-19T06:55:16;99580.59;;;16.48;100.00
48563;BME280;34981;49.104;11.396;2023-09-19T06:57:43;99597.00;;;16.66;100.00
48563;BME280;34981;49.104;11.396;2023-09-19T07:00:11;99596.03;;;16.85;100.00
48563;BME280;34981;49.104;11.396;2023-09-19T07:03:09;99542.31;;;16.87;100.00
48563;BME280;34981;49.104;11.396;2023-09-19T07:05:39;99525.47;;;16.97;100.00
48563;BME280;34981;49.104;11.396;2023-09-19T07:08:07;99528.44;;;17.13;100.00
48563;BME280;34981;49.104;11.396;2023-09-19T07:10:35;99559.44;;;17.49;100.00
48563;BME280;34981;49.104;11.396;2023-09-19T07:13:03;99591.44;;;18.08;100.00
48563;BME280;34981;49.104;11.396;2023-09-19T07:15:32;99554.59;;;18.36;100.00
48563;BME280;34981;49.104;11.396;2023-09-19T07:18:02;99483.03;;;18.28;100.00
48563;BME280;34981;49.104;11.396;2023-09-19T07:20:30;99459.41;;;18.41;100.00
48563;BME280;34981;49.104;11.396;2023-09-19T07:22:59;99387.25;;;18.43;100.00
48563;BME280;34981;49.104;11.396;2023-09-19T07:25:28;99304.94;;;18.29;100.00
48563;BME280;34981;49.104;11.396;2023-09-19T07:27:58;99252.72;;;18.21;100.00
48563;BME280;34981;49.104;11.396;2023-09-19T07:30:27;99228.53;;;18.36;100.00
48563;BME280;34981;49.104;11.396;2023-09-19T07:32:55;99211.94;;;18.49;100.00
48563;BME280;34981;49.104;11.396;2023-09-19T07:35:22;99207.31;;;18.90;100.00
48563;BME280;34981;49.104;11.396;2023-09-19T07:37:49;99081.28;;;18.54;100.00
48563;BME280;34981;49.104;11.396;2023-09-19T07:40:18;99083.25;;;18.87;100.00
48563;BME280;34981;49.104;11.396;2023-09-19T07:42:46;99035.19;;;18.98;100.00
48563;BME280;34981;49.104;11.396;2023-09-19T07:45:14;98972.19;;;18.99;100.00
48563;BME280;34981;49.104;11.396;2023-09-19T07:47:47;98910.97;;;19.07;100.00
48563;BME280;34981;49.104;11.396;2023-09-19T07:50:16;98798.38;;;18.85;100.00
48563;BME280;34981;49.104;11.396;2023-09-19T07:52:46;98771.34;;;19.05;100.00
48563;BME280;34981;49.104;11.396;2023-09-19T07:55:13;98698.16;;;18.92;100.00
48563;BME280;34981;49.104;11.396;2023-09-19T07:57:43;98607.44;;;18.70;100.00
48563;BME280;34981;49.104;11.396;2023-09-19T08:00:11;98507.53;;;18.53;100.00
48563;BME280;34981;49.104;11.396;2023-09-19T08:02:41;98422.41;;;18.41;100.00
48563;BME280;34981;49.104;11.396;2023-09-19T08:05:09;98351.50;;;18.26;100.00
48563;BME280;34981;49.104;11.396;2023-09-19T08:07:40;98274.97;;;18.22;100.00
48563;BME280;34981;49.104;11.396;2023-09-19T08:10:08;98187.25;;;18.10;100.00
48563;BME280;34981;49.104;11.396;2023-09-19T08:12:39;98114.81;;;18.04;100.00
48563;BME280;34981;49.104;11.396;2023-09-19T08:15:16;98025.97;;;17.83;100.00
48563;BME280;34981;49.104;11.396;2023-09-19T08:17:44;97990.34;;;17.84;100.00
48563;BME280;34981;49.104;11.396;2023-09-19T08:20:13;97944.34;;;17.83;100.00
48563;BME280;34981;49.104;11.396;2023-09-19T08:22:51;97888.81;;;17.69;100.00
48563;BME280;34981;49.104;11.396;2023-09-19T08:25:22;97834.16;;;17.75;100.00
48563;BME280;34981;49.104;11.396;2023-09-19T08:27:50;97787.91;;;17.65;100.00
48563;BME280;34981;49.104;11.396;2023-09-19T08:30:21;97755.84;;;17.67;100.00
48563;BME280;34981;49.104;11.396;2023-09-19T08:32:57;97712.56;;;17.66;100.00
48563;BME280;34981;49.104;11.396;2023-09-19T08:35:26;97688.38;;;17.64;100.00
48563;BME280;34981;49.104;11.396;2023-09-19T08:37:53;97653.53;;;17.61;100.00
48563;BME280;34981;49.104;11.396;2023-09-19T08:40:23;97616.28;;;17.57;100.00
48563;BME280;34981;49.104;11.396;2023-09-19T08:42:51;97600.78;;;17.52;100.00
48563;BME280;34981;49.104;11.396;2023-09-19T08:45:19;97571.41;;;17.49;100.00
48563;BME280;34981;49.104;11.396;2023-09-19T08:47:49;97556.72;;;17.50;100.00
48563;BME280;34981;49.104;11.396;2023-09-19T08:50:26;97551.28;;;17.50;100.00
48563;BME280;34981;49.104;11.396;2023-09-19T08:52:55;97530.38;;;17.50;100.00
48563;BME280;34981;49.104;11.396;2023-09-19T08:55:26;97530.09;;;17.52;100.00
48563;BME280;34981;49.104;11.396;2023-09-19T08:58:01;97516.47;;;17.57;100.00
48563;BME280;34981;49.104;11.396;2023-09-19T09:00:30;97516.72;;;17.76;100.00
48563;BME280;34981;49.104;11.396;2023-09-19T09:02:58;97532.69;;;17.98;100.00
48563;BME280;34981;49.104;11.396;2023-09-19T09:05:25;97509.25;;;18.07;100.00
48563;BME280;34981;49.104;11.396;2023-09-19T09:07:54;97485.53;;;18.17;100.00
48563;BME280;34981;49.104;11.396;2023-09-19T09:10:23;97435.72;;;18.17;100.00
48563;BME280;34981;49.104;11.396;2023-09-19T09:12:51;97388.59;;;18.21;100.00
48563;BME280;34981;49.104;11.396;2023-09-19T09:15:19;97369.47;;;18.32;100.00
48563;BME280;34981;49.104;11.396;2023-09-19T09:17:52;97315.34;;;18.25;100.00
48563;BME280;34981;49.104;11.396;2023-09-19T09:20:22;97248.72;;;18.17;100.00
48563;BME280;34981;49.104;11.396;2023-09-19T09:25:46;97193.38;;;18.27;100.00
48563;BME280;34981;49.104;11.396;2023-09-19T09:28:18;97143.34;;;18.23;100.00
48563;BME280;34981;49.104;11.396;2023-09-19T09:30:46;97085.19;;;18.14;100.00
48563;BME280;34981;49.104;11.396;2023-09-19T09:33:14;97018.91;;;18.05;100.00
48563;BME280;34981;49.104;11.396;2023-09-19T09:35:53;96980.31;;;18.03;100.00
48563;BME280;34981;49.104;11.396;2023-09-19T09:38:20;96938.41;;;18.04;100.00
48563;BME280;34981;49.104;11.396;2023-09-19T09:40:51;96912.88;;;18.18;100.00
48563;BME280;34981;49.104;11.396;2023-09-19T09:43:34;96896.53;;;18.37;100.00
48563;BME280;34981;49.104;11.396;2023-09-19T09:46:18;96867.06;;;18.58;100.00
48563;BME280;34981;49.104;11.396;2023-09-19T09:49:02;96845.31;;;18.72;100.00
48563;BME280;34981;49.104;11.396;2023-09-19T09:51:49;96794.66;;;18.71;100.00
48563;BME280;34981;49.104;11.396;2023-09-19T09:54:28;96748.38;;;18.71;100.00
48563;BME280;34981;49.104;11.396;2023-09-19T09:57:01;96698.44;;;18.75;100.00
48563;BME280;34981;49.104;11.396;2023-09-19T10:02:15;96610.84;;;18.95;100.00
48563;BME280;34981;49.104;11.396;2023-09-19T10:04:53;96553.53;;;18.87;100.00
48563;BME280;34981;49.104;11.396;2023-09-19T10:07:41;96503.69;;;19.09;100.00
48563;BME280;34981;49.104;11.396;2023-09-19T10:10:32;96440.31;;;18.94;100.00
48563;BME280;34981;49.104;11.396;2023-09-19T10:13:10;96391.81;;;19.05;100.00
48563;BME280;34981;49.104;11.396;2023-09-19T10:15:47;96324.47;;;18.97;100.00
48563;BME280;34981;49.104;11.396;2023-09-19T10:18:22;96273.66;;;19.01;100.00
48563;BME280;34981;49.104;11.396;2023-09-19T10:20:50;96206.09;;;18.72;100.00
48563;BME280;34981;49.104;11.396;2023-09-19T10:23:18;96143.88;;;18.57;100.00
48563;BME280;34981;49.104;11.396;2023-09-19T10:25:54;96114.16;;;18.78;100.00
48563;BME280;34981;49.104;11.396;2023-09-19T10:28:22;96080.38;;;19.04;100.00
48563;BME280;34981;49.104;11.396;2023-09-19T10:30:50;96059.84;;;19.16;100.00
48563;BME280;34981;49.104;11.396;2023-09-19T10:33:22;96001.19;;;19.18;100.00
48563;BME280;34981;49.104;11.396;2023-09-19T10:35:50;95947.16;;;19.20;100.00
48563;BME280;34981;49.104;11.396;2023-09-19T10:38:23;95868.81;;;19.09;100.00
48563;BME280;34981;49.104;11.396;2023-09-19T10:40:51;95837.13;;;19.33;100.00
48563;BME280;34981;49.104;11.396;2023-09-19T10:43:19;95815.81;;;19.35;100.00
48563;BME280;34981;49.104;11.396;2023-09-19T10:45:48;95781.22;;;19.27;100.00
48563;BME280;34981;49.104;11.396;2023-09-19T10:48:17;95757.75;;;19.35;100.00
48563;BME280;34981;49.104;11.396;2023-09-19T10:56:19;95688.72;;;19.22;100.00
48563;BME280;34981;49.104;11.396;2023-09-19T10:58:48;95686.00;;;18.93;100.00
48563;BME280;34981;49.104;11.396;2023-09-19T11:01:16;95686.69;;;18.90;100.00
48563;BME280;34981;49.104;11.396;2023-09-19T11:03:44;95696.19;;;18.84;100.00
48563;BME280;34981;49.104;11.396;2023-09-19T11:06:12;95695.06;;;18.85;100.00
48563;BME280;34981;49.104;11.396;2023-09-19T11:17:29;95719.06;;;19.41;100.00
48563;BME280;34981;49.104;11.396;2023-09-19T11:22:24;95727.34;;;19.54;100.00
48563;BME280;34981;49.104;11.396;2023-09-19T11:24:53;95726.44;;;19.50;100.00
48563;BME280;34981;49.104;11.396;2023-09-19T11:27:23;95739.94;;;19.37;100.00
48563;BME280;34981;49.104;11.396;2023-09-19T11:30:02;95725.75;;;19.53;100.00
48563;BME280;34981;49.104;11.396;2023-09-19T11:35:49;95743.44;;;19.88;100.00
48563;BME280;34981;49.104;11.396;2023-09-19T11:38:15;95728.47;;;19.94;100.00
48563;BME280;34981;49.104;11.396;2023-09-19T11:40:44;95710.19;;;19.74;100.00
48563;BME280;34981;49.104;11.396;2023-09-19T11:43:30;95691.09;;;19.74;100.00
48563;BME280;34981;49.104;11.396;2023-09-19T11:48:28;95670.25;;;19.57;100.00
48563;BME280;34981;49.104;11.396;2023-09-19T11:50:56;95651.25;;;19.19;100.00
48563;BME280;34981;49.104;11.396;2023-09-19T11:53:24;95640.16;;;19.24;100.00
48563;BME280;34981;49.104;11.396;2023-09-19T11:55:57;95635.69;;;19.40;100.00
48563;BME280;34981;49.104;11.396;2023-09-19T11:58:25;95642.88;;;19.45;100.00
48563;BME280;34981;49.104;11.396;2023-09-19T12:00:55;95653.16;;;19.48;100.00
48563;BME280;34981;49.104;11.396;2023-09-19T12:03:27;95640.72;;;19.30;100.00
48563;BME280;34981;49.104;11.396;2023-09-19T12:05:57;95628.44;;;19.24;100.00
48563;BME280;34981;49.104;11.396;2023-09-19T12:08:26;95628.97;;;19.38;100.00
48563;BME280;34981;49.104;11.396;2023-09-19T12:10:54;95605.38;;;19.42;100.00
48563;BME280;34981;49.104;11.396;2023-09-19T12:13:25;95613.50;;;19.51;100.00
48563;BME280;34981;49.104;11.396;2023-09-19T12:15:52;95626.13;;;19.55;100.00
48563;BME280;34981;49.104;11.396;2023-09-19T12:18:29;95623.66;;;19.62;100.00
48563;BME280;34981;49.104;11.396;2023-09-19T12:20:57;95627.91;;;19.72;100.00
48563;BME280;34981;49.104;11.396;2023-09-19T12:23:29;95610.00;;;19.50;100.00
48563;BME280;34981;49.104;11.396;2023-09-19T12:25:56;95594.75;;;19.49;100.00
48563;BME280;34981;49.104;11.396;2023-09-19T12:28:27;95585.94;;;19.43;100.00
48563;BME280;34981;49.104;11.396;2023-09-19T12:30:54;95558.84;;;19.26;100.00
48563;BME280;34981;49.104;11.396;2023-09-19T12:33:24;95533.22;;;19.27;100.00
48563;BME280;34981;49.104;11.396;2023-09-19T12:35:53;95525.34;;;19.26;100.00
48563;BME280;34981;49.104;11.396;2023-09-19T12:38:24;95536.38;;;19.29;100.00
48563;BME280;34981;49.104;11.396;2023-09-19T12:40:52;95525.91;;;19.19;100.00
48563;BME280;34981;49.104;11.396;2023-09-19T12:43:19;95512.28;;;19.19;100.00
48563;BME280;34981;49.104;11.396;2023-09-19T12:45:46;95499.56;;;19.23;100.00
48563;BME280;34981;49.104;11.396;2023-09-19T12:51:09;95474.13;;;19.19;100.00
48563;BME280;34981;49.104;11.396;2023-09-19T12:53:40;95459.47;;;19.24;100.00
48563;BME280;34981;49.104;11.396;2023-09-19T12:56:11;95463.91;;;19.49;100.00
48563;BME280;34981;49.104;11.396;2023-09-19T12:58:52;95476.44;;;19.74;100.00
48563;BME280;34981;49.104;11.396;2023-09-19T13:01:24;95462.91;;;19.78;100.00
48563;BME280;34981;49.104;11.396;2023-09-19T13:04:14;95453.72;;;19.82;100.00
48563;BME280;34981;49.104;11.396;2023-09-19T13:06:49;95456.09;;;19.84;100.00
48563;BME280;34981;49.104;11.396;2023-09-19T13:09:19;95460.41;;;19.97;100.00
48563;BME280;34981;49.104;11.396;2023-09-19T13:11:47;95461.34;;;20.01;100.00
48563;BME280;34981;49.104;11.396;2023-09-19T13:14:21;95458.25;;;20.03;100.00
48563;BME280;34981;49.104;11.396;2023-09-19T13:16:57;95449.28;;;19.78;100.00
48563;BME280;34981;49.104;11.396;2023-09-19T13:22:04;95466.78;;;19.77;100.00
48563;BME280;34981;49.104;11.396;2023-09-19T13:24:33;95464.94;;;19.81;100.00
48563;BME280;34981;49.104;11.396;2023-09-19T13:27:02;95445.25;;;19.51;100.00
48563;BME280;34981;49.104;11.396;2023-09-19T13:29:30;95435.53;;;19.62;100.00
48563;BME280;34981;49.104;11.396;2023-09-19T13:32:01;95440.06;;;19.82;100.00
48563;BME280;34981;49.104;11.396;2023-09-19T13:34:29;95422.34;;;19.89;100.00
48563;BME280;34981;49.104;11.396;2023-09-19T13:36:57;95427.13;;;19.79;100.00
48563;BME280;34981;49.104;11.396;2023-09-19T13:39:25;95440.84;;;19.95;100.00
48563;BME280;34981;49.104;11.396;2023-09-19T13:41:53;95452.91;;;20.06;100.00
48563;BME280;34981;49.104;11.396;2023-09-19T13:44:20;95433.25;;;20.13;100.00
48563;BME280;34981;49.104;11.396;2023-09-19T13:46:47;95394.97;;;19.85;100.00
48563;BME280;34981;49.104;11.396;2023-09-19T13:49:14;95384.16;;;19.76;100.00
48563;BME280;34981;49.104;11.396;2023-09-19T13:51:41;95396.91;;;19.72;100.00